バンダルスリブガワン の空港の天気 - METARとTAF

ブルネイ国際空港 ( WBSB / BWN ) - ブルネイ バンダルスリブガワン
飛行場実況気象(Metar)
観測時間04/27 00:30 BNT (04/26 16:30 UTC)
風向・風速南 2m/s
視程10km以上
天気現象弱い雨
少しの雲 雲底高度 90m
全天の8割程度の雲 雲底高度 4570m
気温26℃
湿度100%
気圧1009hPa
METARWBSB 261630Z 18003KT 9999 -RA FEW003 BKN150 26/26 Q1009 NOSIG
過去の天気等 Google飛行場航空写真 Wunderground天気予報

過去48時間のMETAR

飛行場予報(TAF)
発表時間: 4/26 19:00 BNT (4/26 11:00 UTC)
予報対象時間: 26日20時 BNT ~ 28日2時 BNT
風向・風速西南西 2m/s
視程10km以上
全天の4割程度の雲 雲底高度 430m
少しの積乱雲 雲底高度 460m
26日20時 BNT ~ 26日22時 BNT に一時的に
視程4000m
天気現象雷雨
26日23時 BNT ~ 27日4時 BNT に一時的に
視程8000m
天気現象弱い雨
少しの雲 雲底高度 150m
TAF WBSB 261100Z 2612/2718 24004KT 9999 SCT014 FEW015CB
TEMPO 2612/2614 4000 TSRA
TEMPO 2615/2620 8000 -RA FEW005